createdAt,value
2023-04-29T00:02:06.165Z,10.40
2023-04-29T00:12:11.193Z,9.90
2023-04-29T00:22:18.233Z,9.20
2023-04-29T00:32:23.444Z,9.00
2023-04-29T00:42:32.316Z,9.00
2023-04-29T00:52:38.102Z,9.00
2023-04-29T01:02:46.409Z,8.80
2023-04-29T01:13:16.480Z,8.50
2023-04-29T01:23:22.495Z,9.20
2023-04-29T01:34:47.909Z,10.00
2023-04-29T01:45:16.491Z,9.20
2023-04-29T01:56:00.949Z,9.30
2023-04-29T02:07:20.971Z,10.10
2023-04-29T02:17:46.935Z,9.50
2023-04-29T02:27:51.576Z,10.00
2023-04-29T02:37:57.637Z,10.40
2023-04-29T02:48:01.433Z,10.30
2023-04-29T02:58:27.477Z,10.50
2023-04-29T03:08:31.311Z,11.90
2023-04-29T03:18:35.049Z,12.40
2023-04-29T03:28:38.969Z,12.40
2023-04-29T03:38:43.612Z,12.70
2023-04-29T03:48:47.802Z,12.20
2023-04-29T03:59:52.835Z,12.50
2023-04-29T04:09:59.115Z,13.60
2023-04-29T04:20:25.100Z,13.10
2023-04-29T04:30:29.943Z,12.90
2023-04-29T04:40:35.503Z,12.20
2023-04-29T04:51:13.925Z,12.10
2023-04-29T05:01:24.525Z,11.70
2023-04-29T05:11:29.136Z,13.50
2023-04-29T05:22:37.515Z,12.60
2023-04-29T05:32:41.202Z,11.30
2023-04-29T05:42:49.702Z,11.40
2023-04-29T05:52:54.860Z,11.20
2023-04-29T06:03:03.129Z,11.50
2023-04-29T06:13:07.092Z,11.00
2023-04-29T06:23:11.180Z,11.10
2023-04-29T06:33:15.784Z,11.30
2023-04-29T06:43:19.892Z,10.80
2023-04-29T06:53:42.134Z,11.10
2023-04-29T07:03:49.695Z,10.70
2023-04-29T07:13:56.619Z,10.90
2023-04-29T07:24:10.079Z,10.50
2023-04-29T07:34:25.638Z,10.90
2023-04-29T07:44:32.298Z,9.80
2023-04-29T07:54:40.590Z,9.60
2023-04-29T08:04:45.397Z,9.30
2023-04-29T08:15:09.515Z,9.40
2023-04-29T08:25:15.374Z,8.50
2023-04-29T08:35:19.237Z,8.50
2023-04-29T08:45:27.540Z,8.20
2023-04-29T08:55:33.566Z,8.10
2023-04-29T09:05:38.804Z,7.80
2023-04-29T09:15:42.998Z,7.90
2023-04-29T09:25:58.532Z,7.80
2023-04-29T09:36:02.342Z,7.50
2023-04-29T09:46:06.174Z,7.20
2023-04-29T09:56:09.856Z,7.20
2023-04-29T10:06:16.943Z,7.30
2023-04-29T10:16:21.679Z,7.40
2023-04-29T10:26:30.169Z,7.50
2023-04-29T10:36:35.142Z,7.20
2023-04-29T10:47:21.720Z,7.40
2023-04-29T10:57:25.389Z,6.60
2023-04-29T11:07:31.919Z,7.20
2023-04-29T11:17:38.775Z,6.30
2023-04-29T11:27:50.601Z,6.70
2023-04-29T11:37:56.860Z,6.40
2023-04-29T11:48:01.359Z,6.10
2023-04-29T11:58:05.998Z,6.20
2023-04-29T12:08:09.765Z,6.00
2023-04-29T12:18:15.572Z,6.20
2023-04-29T12:28:19.957Z,6.60
2023-04-29T12:38:27.913Z,6.30
2023-04-29T12:48:34.104Z,6.20
2023-04-29T12:58:39.023Z,6.50
2023-04-29T13:08:44.715Z,6.80
2023-04-29T13:19:01.783Z,6.10
2023-04-29T13:29:13.013Z,5.90
2023-04-29T13:39:20.187Z,6.80
2023-04-29T13:49:55.954Z,6.60
2023-04-29T13:59:55.322Z,6.30
2023-04-29T14:09:59.273Z,6.00
2023-04-29T14:20:06.228Z,5.90
2023-04-29T14:30:10.303Z,7.40
2023-04-29T14:40:13.981Z,6.60
2023-04-29T14:50:19.850Z,7.70
2023-04-29T15:00:43.759Z,8.70
2023-04-29T15:10:48.017Z,7.80
2023-04-29T15:21:35.591Z,6.30
2023-04-29T15:31:39.406Z,7.30
2023-04-29T15:41:45.068Z,7.50
2023-04-29T15:51:48.715Z,7.00
2023-04-29T16:01:57.655Z,7.50
2023-04-29T16:12:05.377Z,10.20
2023-04-29T16:22:10.156Z,11.50
2023-04-29T16:32:13.732Z,8.30
2023-04-29T16:42:17.725Z,13.10
2023-04-29T16:52:25.244Z,9.60
2023-04-29T17:02:29.834Z,8.80
2023-04-29T17:12:35.728Z,11.70
2023-04-29T17:22:42.210Z,13.30
2023-04-29T17:32:46.929Z,11.30
2023-04-29T17:42:51.092Z,12.50
2023-04-29T17:52:56.842Z,15.80
2023-04-29T18:03:01.066Z,12.40
2023-04-29T18:13:04.864Z,11.70
2023-04-29T18:23:12.336Z,32.60
2023-04-29T18:33:16.823Z,19.20
2023-04-29T18:43:25.017Z,26.40
2023-04-29T18:53:30.169Z,18.80
2023-04-29T19:03:37.309Z,18.00
2023-04-29T19:13:44.245Z,21.70
2023-04-29T19:23:48.102Z,15.70
2023-04-29T19:33:52.746Z,14.10
2023-04-29T19:43:58.430Z,12.40
2023-04-29T19:54:02.234Z,13.20
2023-04-29T20:04:06.288Z,11.80
2023-04-29T20:14:15.760Z,12.60
2023-04-29T20:24:19.364Z,12.30
2023-04-29T20:34:26.685Z,13.10
2023-04-29T20:44:33.657Z,13.40
2023-04-29T20:54:37.950Z,13.40
2023-04-29T21:04:46.565Z,13.70
2023-04-29T21:14:50.226Z,13.50
2023-04-29T21:24:53.773Z,13.90
2023-04-29T21:35:00.183Z,14.40
2023-04-29T21:46:07.075Z,15.00
2023-04-29T21:56:14.213Z,15.20
2023-04-29T22:06:38.323Z,15.60
2023-04-29T22:16:45.055Z,16.40
2023-04-29T22:26:51.054Z,17.40
2023-04-29T22:37:45.257Z,18.10
2023-04-29T22:47:50.743Z,19.40
2023-04-29T22:57:55.697Z,18.90
2023-04-29T23:09:00.049Z,18.60
2023-04-29T23:19:04.995Z,11.50
2023-04-29T23:29:08.632Z,10.30
2023-04-29T23:39:15.562Z,10.60
2023-04-29T23:49:20.313Z,10.80
2023-04-29T23:59:23.958Z,11.00
